Time;durP1;ratioP1;P1;durP2;ratioP2;P2;SDS_P1;SDS_P2;PMS_P1;PMS_P2;Temp;Humidity;BMP_temperature;BMP_pressure;BME280_temperature;BME280_humidity;BME280_pressure;Samples;Min_cycle;Max_cycle;Signal;HPM_P1;HPM_P2
2022/12/01 00:00:14;;;;;;;3.88;2.85;;;;;;;;;;10346193;28;20056;-80
2022/12/01 00:05:17;;;;;;;;;;;;;;;;;;10328210;28;20113;-81
2022/12/01 00:10:27;;;;;;;4.20;2.85;;;;;;;;;;10345939;28;19956;-80
2022/12/01 00:15:34;;;;;;;4.18;2.85;;;;;;;;;;10326363;28;20136;-81
2022/12/01 00:20:38;;;;;;;5.28;3.20;;;;;;;;;;10326830;28;20575;-82
2022/12/01 00:25:43;;;;;;;4.55;3.10;;;;;;;;;;10345238;28;20049;-82
2022/12/01 00:30:48;;;;;;;4.18;2.55;;;;;;;;;;10364506;28;20069;-82
2022/12/01 00:35:57;;;;;;;4.43;2.95;;;;;;;;;;10334882;28;20634;-83
2022/12/01 00:41:01;;;;;;;3.70;2.33;;;;;;;;;;10349332;28;20072;-83
2022/12/01 00:46:05;;;;;;;3.50;2.00;;;;;;;;;;10335882;28;20049;-82
2022/12/01 00:51:09;;;;;;;3.20;2.13;;;;;;;;;;10363872;28;20465;-82
2022/12/01 00:56:13;;;;;;;5.22;3.08;;;;;;;;;;10360453;28;20080;-82
2022/12/01 01:01:18;;;;;;;5.18;3.25;;;;;;;;;;10372812;28;20053;-83
2022/12/01 01:06:22;;;;;;;5.10;3.42;;;;;;;;;;10347650;28;20320;-83
2022/12/01 01:11:25;;;;;;;4.65;3.03;;;;;;;;;;10366657;28;20049;-82
2022/12/01 01:16:30;;;;;;;4.65;3.20;;;;;;;;;;10339210;28;20038;-81
2022/12/01 01:21:34;;;;;;;4.18;2.45;;;;;;;;;;10342601;28;20045;-81
2022/12/01 01:26:38;;;;;;;3.60;2.85;;;;;;;;;;10339215;28;20038;-82
2022/12/01 01:31:43;;;;;;;2.55;1.92;;;;;;;;;;10341939;28;20060;-81
2022/12/01 01:36:46;;;;;;;3.50;1.83;;;;;;;;;;10342173;28;20044;-81
2022/12/01 01:41:49;;;;;;;2.00;1.48;;;;;;;;;;10361679;28;20049;-81
2022/12/01 01:46:54;;;;;;;2.47;1.45;;;;;;;;;;10339988;28;20065;-82
2022/12/01 01:51:58;;;;;;;2.08;1.50;;;;;;;;;;10340336;28;20486;-82
2022/12/01 01:57:03;;;;;;;2.22;1.65;;;;;;;;;;10333532;28;20041;-81
2022/12/01 02:02:10;;;;;;;1.60;1.33;;;;;;;;;;10335423;28;20050;-81
2022/12/01 02:07:18;;;;;;;2.17;1.60;;;;;;;;;;10335872;28;20128;-81
2022/12/01 02:12:42;;;;;;;1.98;1.30;;;;;;;;;;10334426;28;20058;-81
2022/12/01 02:17:57;;;;;;;1.70;1.40;;;;;;;;;;10332788;28;20053;-82
2022/12/01 02:23:29;;;;;;;1.98;1.20;;;;;;;;;;10351978;28;20146;-80
2022/12/01 02:28:50;;;;;;;2.10;1.40;;;;;;;;;;10329090;28;20042;-81
2022/12/01 02:33:58;;;;;;;1.33;0.98;;;;;;;;;;10327170;28;20050;-81
2022/12/01 02:39:09;;;;;;;3.50;2.13;;;;;;;;;;10327588;28;20054;-83
2022/12/01 02:44:19;;;;;;;2.15;1.52;;;;;;;;;;10331321;28;20513;-81
2022/12/01 02:49:28;;;;;;;1.35;1.20;;;;;;;;;;10349424;28;20058;-82
2022/12/01 02:54:33;;;;;;;1.60;1.25;;;;;;;;;;10330103;28;20038;-81
2022/12/01 02:59:36;;;;;;;0.98;0.85;;;;;;;;;;10332151;28;20092;-81
2022/12/01 03:04:52;;;;;;;1.65;1.23;;;;;;;;;;10331405;28;20520;-81
2022/12/01 03:10:04;;;;;;;1.83;0.95;;;;;;;;;;10348912;28;20543;-81
2022/12/01 03:15:13;;;;;;;1.15;1.05;;;;;;;;;;10323343;28;20049;-81
2022/12/01 03:20:23;;;;;;;1.27;1.05;;;;;;;;;;10347268;28;20050;-80
2022/12/01 03:25:28;;;;;;;0.63;0.63;;;;;;;;;;10331776;28;20188;-80
2022/12/01 03:30:33;;;;;;;1.13;0.88;;;;;;;;;;10330480;28;20054;-82
2022/12/01 03:35:43;;;;;;;0.65;0.60;;;;;;;;;;10329556;28;20108;-80
2022/12/01 03:40:49;;;;;;;1.25;1.00;;;;;;;;;;10326561;28;20049;-82
2022/12/01 03:45:58;;;;;;;1.48;0.90;;;;;;;;;;10327715;28;20133;-81
2022/12/01 03:51:10;;;;;;;1.08;0.63;;;;;;;;;;10344583;28;20253;-82
2022/12/01 03:56:15;;;;;;;1.65;0.90;;;;;;;;;;10322071;28;20501;-82
2022/12/01 04:01:21;;;;;;;1.65;0.80;;;;;;;;;;10347098;28;20053;-81
2022/12/01 04:06:25;;;;;;;1.43;1.13;;;;;;;;;;10346793;28;20858;-81
2022/12/01 04:16:50;;;;;;;1.38;0.90;;;;;;;;;;10352772;28;20042;-82
2022/12/01 04:21:55;;;;;;;1.40;1.13;;;;;;;;;;10353934;28;20054;-81
2022/12/01 04:26:58;;;;;;;2.03;1.67;;;;;;;;;;10343275;28;20042;-80
2022/12/01 04:32:01;;;;;;;2.15;1.77;;;;;;;;;;10344771;28;20411;-81
2022/12/01 04:37:06;;;;;;;2.13;1.60;;;;;;;;;;10322758;28;20054;-81
2022/12/01 04:42:11;;;;;;;3.30;2.00;;;;;;;;;;10345274;28;20050;-81
2022/12/01 04:47:14;;;;;;;2.30;1.70;;;;;;;;;;10321982;28;20071;-82
2022/12/01 04:52:19;;;;;;;2.38;1.70;;;;;;;;;;10329627;28;20088;-82
2022/12/01 04:57:22;;;;;;;1.92;1.63;;;;;;;;;;10327906;28;20061;-81
2022/12/01 05:02:26;;;;;;;2.00;1.60;;;;;;;;;;10328035;28;20552;-81
2022/12/01 05:07:30;;;;;;;2.70;2.05;;;;;;;;;;10345836;28;20045;-82
2022/12/01 05:12:34;;;;;;;1.63;1.42;;;;;;;;;;10337986;28;20065;-82
2022/12/01 05:17:37;;;;;;;2.47;1.92;;;;;;;;;;10333265;28;20046;-83
2022/12/01 05:22:42;;;;;;;2.60;1.90;;;;;;;;;;10330920;28;20073;-82
2022/12/01 05:28:05;;;;;;;1.90;1.67;;;;;;;;;;10346259;28;20042;-81
2022/12/01 05:33:09;;;;;;;3.97;2.33;;;;;;;;;;10332565;28;20492;-82
2022/12/01 05:38:13;;;;;;;3.90;2.67;;;;;;;;;;10331788;28;20100;-82
2022/12/01 05:43:17;;;;;;;3.05;2.55;;;;;;;;;;10347864;28;20066;-80
2022/12/01 05:48:22;;;;;;;3.70;2.83;;;;;;;;;;10328556;28;20132;-81
2022/12/01 05:53:27;;;;;;;2.97;2.13;;;;;;;;;;10333783;28;20054;-81
2022/12/01 05:58:30;;;;;;;4.38;2.72;;;;;;;;;;10341715;28;20046;-83
2022/12/01 06:03:34;;;;;;;4.03;2.70;;;;;;;;;;10362596;28;20049;-84
2022/12/01 06:08:38;;;;;;;4.03;2.58;;;;;;;;;;10339282;28;20045;-84
2022/12/01 06:13:42;;;;;;;3.78;2.53;;;;;;;;;;10337260;28;20052;-85
2022/12/01 06:18:45;;;;;;;4.15;2.95;;;;;;;;;;10334330;28;20525;-85
2022/12/01 06:23:50;;;;;;;4.20;2.95;;;;;;;;;;10355602;28;20042;-85
2022/12/01 06:28:53;;;;;;;5.13;3.03;;;;;;;;;;10338168;28;20493;-85
2022/12/01 06:33:59;;;;;;;4.03;2.97;;;;;;;;;;10334976;28;20124;-84
2022/12/01 06:39:08;;;;;;;5.45;3.92;;;;;;;;;;10335035;28;20045;-84
2022/12/01 06:44:11;;;;;;;4.82;3.28;;;;;;;;;;10351808;28;20054;-84
2022/12/01 06:49:15;;;;;;;4.35;3.08;;;;;;;;;;10356573;28;20120;-85
2022/12/01 06:54:20;;;;;;;5.30;3.63;;;;;;;;;;10344760;28;20072;-85
2022/12/01 06:59:23;;;;;;;5.38;3.33;;;;;;;;;;10357061;28;20117;-85
2022/12/01 07:04:27;;;;;;;5.13;3.25;;;;;;;;;;10333493;28;20050;-85
2022/12/01 07:09:31;;;;;;;4.40;2.75;;;;;;;;;;10352872;28;20696;-85
2022/12/01 07:14:35;;;;;;;5.40;3.80;;;;;;;;;;10333545;28;20137;-85
2022/12/01 07:19:38;;;;;;;5.95;3.92;;;;;;;;;;10331939;28;20144;-85
2022/12/01 07:24:43;;;;;;;6.60;3.72;;;;;;;;;;10333845;28;20050;-84
2022/12/01 07:29:46;;;;;;;7.75;4.97;;;;;;;;;;10333929;28;20519;-86
2022/12/01 07:34:50;;;;;;;7.82;5.05;;;;;;;;;;10333864;28;20088;-86
2022/12/01 07:39:54;;;;;;;10.90;5.97;;;;;;;;;;10333943;28;20049;-85
2022/12/01 07:44:58;;;;;;;7.72;4.97;;;;;;;;;;10350972;28;20070;-85
2022/12/01 07:50:01;;;;;;;8.20;5.40;;;;;;;;;;10351351;28;20084;-83
2022/12/01 07:55:07;;;;;;;6.78;4.40;;;;;;;;;;10327603;28;20060;-82
2022/12/01 08:00:12;;;;;;;8.70;5.43;;;;;;;;;;10346556;28;20103;-83
2022/12/01 08:05:15;;;;;;;10.40;6.05;;;;;;;;;;10331353;28;20505;-84
2022/12/01 08:10:20;;;;;;;7.07;4.60;;;;;;;;;;10323057;28;20050;-85
2022/12/01 08:15:23;;;;;;;8.52;4.97;;;;;;;;;;10354832;28;20056;-85
2022/12/01 08:20:27;;;;;;;8.80;4.85;;;;;;;;;;10352979;28;20136;-85
2022/12/01 08:25:32;;;;;;;7.00;4.35;;;;;;;;;;10330909;28;20433;-84
2022/12/01 08:30:36;;;;;;;8.20;5.03;;;;;;;;;;10327963;28;20140;-84
2022/12/01 08:35:40;;;;;;;8.63;4.35;;;;;;;;;;10327457;28;20123;-84
2022/12/01 08:40:44;;;;;;;9.02;4.63;;;;;;;;;;10343977;28;20042;-84
2022/12/01 08:45:48;;;;;;;5.65;3.72;;;;;;;;;;10346463;28;20050;-85
2022/12/01 08:50:52;;;;;;;5.10;3.28;;;;;;;;;;10331222;28;20125;-84
2022/12/01 08:55:59;;;;;;;6.38;4.22;;;;;;;;;;10330074;28;20050;-84
2022/12/01 09:01:04;;;;;;;6.20;4.10;;;;;;;;;;10335047;28;20065;-84
2022/12/01 09:06:10;;;;;;;5.65;3.63;;;;;;;;;;10338335;28;20387;-86
2022/12/01 09:11:17;;;;;;;4.70;3.33;;;;;;;;;;10340479;28;20046;-85
2022/12/01 09:16:20;;;;;;;5.78;3.53;;;;;;;;;;10332703;28;20543;-85
2022/12/01 09:21:25;;;;;;;5.57;3.55;;;;;;;;;;10352566;28;20046;-85
2022/12/01 09:26:31;;;;;;;5.15;3.35;;;;;;;;;;10333051;28;20060;-85
2022/12/01 09:31:35;;;;;;;4.87;3.30;;;;;;;;;;10338828;28;20104;-84
2022/12/01 09:36:39;;;;;;;4.47;3.00;;;;;;;;;;10331550;28;20050;-85
2022/12/01 09:41:47;;;;;;;4.85;2.95;;;;;;;;;;10332780;28;20046;-84
2022/12/01 09:46:55;;;;;;;4.40;3.25;;;;;;;;;;10347814;28;20065;-85
2022/12/01 09:52:00;;;;;;;4.65;2.90;;;;;;;;;;10348547;28;20049;-85
2022/12/01 09:57:05;;;;;;;4.88;2.80;;;;;;;;;;10340827;28;20053;-84
2022/12/01 10:02:24;;;;;;;3.53;2.72;;;;;;;;;;10336009;28;20124;-86
2022/12/01 10:07:30;;;;;;;3.50;2.47;;;;;;;;;;10336177;28;20046;-84
2022/12/01 10:12:35;;;;;;;;;;;;;;;;;;10335912;28;20720;-85
2022/12/01 10:17:51;;;;;;;4.53;2.63;;;;;;;;;;10332592;28;19921;-85
2022/12/01 10:23:13;;;;;;;4.82;3.05;;;;;;;;;;10333935;28;20046;-84
2022/12/01 10:29:01;;;;;;;5.28;3.58;;;;;;;;;;10326481;28;20527;-85
2022/12/01 10:34:12;;;;;;;5.75;3.60;;;;;;;;;;10331448;28;20323;-85
2022/12/01 10:39:19;;;;;;;5.07;3.22;;;;;;;;;;10340799;28;20049;-84
2022/12/01 10:44:24;;;;;;;6.68;3.63;;;;;;;;;;10336926;28;20123;-85
2022/12/01 10:49:37;;;;;;;6.88;4.18;;;;;;;;;;10343128;28;20421;-86
2022/12/01 10:54:41;;;;;;;6.75;4.25;;;;;;;;;;10342794;28;20494;-85
2022/12/01 10:59:52;;;;;;;6.28;3.85;;;;;;;;;;10343384;28;20584;-84
2022/12/01 11:04:59;;;;;;;5.93;3.72;;;;;;;;;;10359350;28;20060;-85
2022/12/01 11:10:13;;;;;;;;;;;;;;;;;;10333542;28;20109;-86
2022/12/01 11:15:23;;;;;;;5.95;4.20;;;;;;;;;;10353392;28;19976;-86
2022/12/01 11:20:31;;;;;;;7.32;4.85;;;;;;;;;;10344233;28;20049;-84
2022/12/01 11:25:34;;;;;;;8.45;4.95;;;;;;;;;;10346159;28;20050;-85
2022/12/01 11:30:39;;;;;;;7.95;5.55;;;;;;;;;;10343610;28;20088;-86
2022/12/01 11:35:48;;;;;;;8.07;5.05;;;;;;;;;;10360004;28;20045;-85
2022/12/01 11:40:54;;;;;;;7.20;4.50;;;;;;;;;;10345612;28;20049;-85
2022/12/01 11:46:02;;;;;;;11.35;5.20;;;;;;;;;;10365177;28;20133;-84
2022/12/01 11:51:08;;;;;;;10.20;5.88;;;;;;;;;;10341846;28;20068;-85
2022/12/01 11:56:18;;;;;;;9.18;5.60;;;;;;;;;;10347023;28;20058;-84
2022/12/01 12:01:34;;;;;;;8.52;5.50;;;;;;;;;;10347277;28;20050;-85
2022/12/01 12:06:44;;;;;;;9.57;5.88;;;;;;;;;;10347455;28;20050;-85
2022/12/01 12:11:54;;;;;;;10.45;6.07;;;;;;;;;;10345713;28;20038;-85
2022/12/01 12:17:14;;;;;;;10.00;6.50;;;;;;;;;;10347627;28;20053;-85
2022/12/01 12:22:28;;;;;;;11.80;7.40;;;;;;;;;;10347344;28;20060;-85
2022/12/01 12:27:41;;;;;;;11.55;6.43;;;;;;;;;;10360687;28;20054;-83
2022/12/01 12:33:06;;;;;;;10.73;6.70;;;;;;;;;;10359894;28;20052;-85
2022/12/01 12:38:22;;;;;;;11.52;7.10;;;;;;;;;;10341438;28;20413;-85
2022/12/01 12:43:32;;;;;;;11.80;6.82;;;;;;;;;;10343697;28;20081;-85
2022/12/01 12:48:57;;;;;;;10.15;6.20;;;;;;;;;;10361006;28;20050;-84
2022/12/01 12:54:27;;;;;;;11.95;6.80;;;;;;;;;;10346029;28;20064;-85
2022/12/01 12:59:38;;;;;;;11.00;6.57;;;;;;;;;;10360333;28;20046;-85
2022/12/01 13:04:51;;;;;;;9.57;5.68;;;;;;;;;;10501199;23;20056;-84
2022/12/01 13:09:58;;;;;;;10.93;7.10;;;;;;;;;;10330390;28;20054;-86
2022/12/01 13:15:13;;;;;;;10.40;6.38;;;;;;;;;;10324353;28;20140;-86
2022/12/01 13:20:21;;;;;;;9.52;6.13;;;;;;;;;;10331830;28;20047;-90
2022/12/01 13:25:30;;;;;;;9.82;5.80;;;;;;;;;;10335506;28;20054;-87
2022/12/01 13:30:34;;;;;;;14.80;7.93;;;;;;;;;;10327888;28;20112;-85
2022/12/01 13:35:40;;;;;;;12.85;7.53;;;;;;;;;;10339913;28;20050;-85
2022/12/01 13:40:44;;;;;;;11.18;6.35;;;;;;;;;;10324608;28;20141;-87
2022/12/01 13:45:49;;;;;;;10.13;6.22;;;;;;;;;;10324585;28;20050;-86
2022/12/01 13:51:00;;;;;;;13.95;6.78;;;;;;;;;;10319523;28;20589;-87
2022/12/01 13:56:24;;;;;;;11.90;7.55;;;;;;;;;;10302632;28;20085;-83
2022/12/01 14:01:45;;;;;;;12.07;6.80;;;;;;;;;;10301630;28;20046;-84
2022/12/01 14:07:10;;;;;;;12.50;7.30;;;;;;;;;;10322488;28;20400;-84
2022/12/01 14:12:19;;;;;;;14.43;8.70;;;;;;;;;;10311705;28;20128;-83
2022/12/01 14:17:27;;;;;;;16.45;8.98;;;;;;;;;;10313553;28;20145;-84
2022/12/01 14:22:37;;;;;;;14.30;8.73;;;;;;;;;;10330645;28;20144;-87
2022/12/01 14:27:42;;;;;;;17.50;9.40;;;;;;;;;;10333590;28;20093;-87
2022/12/01 14:32:46;;;;;;;14.18;8.27;;;;;;;;;;10319934;28;20073;-89
2022/12/01 14:37:50;;;;;;;14.88;8.32;;;;;;;;;;10337727;28;20046;-86
2022/12/01 14:48:25;;;;;;;12.77;7.45;;;;;;;;;;10334252;28;20077;-86
2022/12/01 14:53:43;;;;;;;14.85;8.90;;;;;;;;;;10335767;28;20061;-88
2022/12/01 14:59:00;;;;;;;17.70;10.18;;;;;;;;;;10328811;28;20054;-86
2022/12/01 15:04:08;;;;;;;17.25;9.48;;;;;;;;;;10342871;28;20050;-86
2022/12/01 15:09:23;;;;;;;15.23;8.20;;;;;;;;;;10332620;28;20050;-86
2022/12/01 15:14:37;;;;;;;14.48;8.23;;;;;;;;;;10339429;28;20512;-86
2022/12/01 15:19:42;;;;;;;11.55;6.93;;;;;;;;;;10318628;28;20497;-87
2022/12/01 15:24:47;;;;;;;10.60;6.70;;;;;;;;;;10341993;28;20516;-86
2022/12/01 15:30:06;;;;;;;8.68;5.72;;;;;;;;;;10319393;28;20053;-86
2022/12/01 15:35:21;;;;;;;13.73;8.57;;;;;;;;;;10315550;28;20061;-87
2022/12/01 15:40:32;;;;;;;13.95;8.15;;;;;;;;;;10319841;28;20049;-86
2022/12/01 15:45:59;;;;;;;12.88;6.57;;;;;;;;;;10336970;28;20416;-86
2022/12/01 15:51:17;;;;;;;11.30;6.28;;;;;;;;;;10315062;28;20066;-87
2022/12/01 15:56:29;;;;;;;9.82;5.93;;;;;;;;;;10307994;28;20058;-85
2022/12/01 16:01:38;;;;;;;7.93;5.00;;;;;;;;;;10311356;28;20077;-85
2022/12/01 16:06:42;;;;;;;8.73;5.30;;;;;;;;;;10327555;28;20057;-86
2022/12/01 16:12:18;;;;;;;8.27;5.05;;;;;;;;;;10313168;28;20140;-87
2022/12/01 16:17:23;;;;;;;7.82;4.80;;;;;;;;;;10347159;28;20046;-86
2022/12/01 16:22:27;;;;;;;9.63;5.60;;;;;;;;;;10332200;28;20038;-86
2022/12/01 16:27:32;;;;;;;10.05;5.20;;;;;;;;;;10310856;28;20050;-87
2022/12/01 16:32:48;;;;;;;10.07;5.28;;;;;;;;;;10338213;28;20145;-87
2022/12/01 16:37:54;;;;;;;10.83;5.87;;;;;;;;;;10308437;28;20458;-87
2022/12/01 16:43:01;;;;;;;9.05;5.65;;;;;;;;;;10321253;28;20495;-88
2022/12/01 16:48:05;;;;;;;10.18;5.50;;;;;;;;;;10320202;28;20058;-88
2022/12/01 16:53:11;;;;;;;;;;;;;;;;;;10310006;28;20074;-87
2022/12/01 16:58:16;;;;;;;9.27;4.88;;;;;;;;;;10309517;28;20020;-90
2022/12/01 17:03:22;;;;;;;7.43;4.18;;;;;;;;;;10308879;28;20440;-86
2022/12/01 17:08:26;;;;;;;11.38;6.13;;;;;;;;;;10313589;28;20080;-83
2022/12/01 17:13:30;;;;;;;9.52;6.10;;;;;;;;;;10306393;28;20066;-84
2022/12/01 17:18:35;;;;;;;10.77;6.68;;;;;;;;;;10295519;28;20060;-83
2022/12/01 17:23:42;;;;;;;11.75;6.65;;;;;;;;;;10322495;28;20097;-84
2022/12/01 17:28:47;;;;;;;10.77;6.15;;;;;;;;;;10301565;28;20260;-84
2022/12/01 17:33:56;;;;;;;10.60;6.03;;;;;;;;;;10329607;28;20048;-88
2022/12/01 17:39:00;;;;;;;9.73;5.53;;;;;;;;;;10324614;28;20049;-86
2022/12/01 17:44:05;;;;;;;9.93;5.65;;;;;;;;;;10324993;28;20062;-85
2022/12/01 17:49:14;;;;;;;9.63;5.78;;;;;;;;;;10321739;28;20089;-88
2022/12/01 17:54:18;;;;;;;9.02;5.75;;;;;;;;;;10334471;28;20788;-88
2022/12/01 17:59:24;;;;;;;9.75;5.70;;;;;;;;;;10323572;28;20187;-90
2022/12/01 18:04:28;;;;;;;9.20;4.78;;;;;;;;;;10332859;28;20146;-86
2022/12/01 18:09:32;;;;;;;8.98;5.35;;;;;;;;;;10318462;28;20046;-89
2022/12/01 18:14:37;;;;;;;6.97;4.68;;;;;;;;;;10308325;28;20046;-88
2022/12/01 18:19:42;;;;;;;9.23;5.03;;;;;;;;;;10313995;28;20189;-86
2022/12/01 18:24:46;;;;;;;7.70;5.15;;;;;;;;;;10332641;28;20133;-87
2022/12/01 18:29:53;;;;;;;10.18;6.10;;;;;;;;;;10327468;28;20049;-84
2022/12/01 18:34:56;;;;;;;11.27;6.43;;;;;;;;;;10299053;28;20076;-84
2022/12/01 18:40:02;;;;;;;8.77;5.05;;;;;;;;;;10317482;28;20046;-90
2022/12/01 18:45:07;;;;;;;7.68;5.00;;;;;;;;;;10307151;28;20052;-85
2022/12/01 18:50:11;;;;;;;7.35;4.38;;;;;;;;;;10319342;28;20069;-91
2022/12/01 18:55:15;;;;;;;8.88;5.30;;;;;;;;;;10298999;28;20061;-85
2022/12/01 19:00:20;;;;;;;8.38;4.90;;;;;;;;;;10283966;28;20058;-84
2022/12/01 19:05:29;;;;;;;7.50;4.63;;;;;;;;;;10295955;28;20052;-85
2022/12/01 19:10:32;;;;;;;;;;;;;;;;;;10298895;28;20140;-85
2022/12/01 19:15:38;;;;;;;8.30;5.03;;;;;;;;;;10300570;28;20535;-85
2022/12/01 19:20:41;;;;;;;8.35;4.78;;;;;;;;;;10310273;28;20073;-85
2022/12/01 19:25:44;;;;;;;8.65;4.97;;;;;;;;;;10323668;28;20633;-84
2022/12/01 19:30:50;;;;;;;10.10;4.95;;;;;;;;;;10318370;28;20137;-87
2022/12/01 19:35:53;;;;;;;9.63;5.97;;;;;;;;;;10326818;28;20505;-87
2022/12/01 19:41:00;;;;;;;8.32;4.88;;;;;;;;;;10320047;28;20058;-89
2022/12/01 19:46:14;;;;;;;8.57;4.93;;;;;;;;;;10317063;28;20349;-87
2022/12/01 19:51:18;;;;;;;7.70;5.03;;;;;;;;;;10309267;28;20054;-86
2022/12/01 19:56:23;;;;;;;8.25;5.15;;;;;;;;;;10317352;28;20057;-85
2022/12/01 20:01:28;;;;;;;8.63;5.30;;;;;;;;;;10304167;28;20084;-83
2022/12/01 20:06:33;;;;;;;8.23;4.82;;;;;;;;;;10296015;28;20046;-85
2022/12/01 20:11:37;;;;;;;8.03;5.13;;;;;;;;;;10308195;28;20070;-85
2022/12/01 20:16:42;;;;;;;10.43;5.38;;;;;;;;;;10306587;28;20050;-84
2022/12/01 20:21:46;;;;;;;9.05;4.47;;;;;;;;;;10299306;28;20104;-84
2022/12/01 20:26:52;;;;;;;8.45;5.07;;;;;;;;;;10296852;28;20049;-84
2022/12/01 20:31:58;;;;;;;8.77;5.15;;;;;;;;;;10296572;28;20053;-85
2022/12/01 20:37:05;;;;;;;8.60;5.10;;;;;;;;;;10282600;28;20050;-84
2022/12/01 20:42:10;;;;;;;8.45;4.97;;;;;;;;;;10308424;28;20081;-85
2022/12/01 20:47:17;;;;;;;9.75;5.20;;;;;;;;;;10326143;28;20065;-87
2022/12/01 20:52:20;;;;;;;8.70;4.95;;;;;;;;;;10335892;28;20052;-88
2022/12/01 20:57:25;;;;;;;9.43;5.15;;;;;;;;;;10349910;28;20049;-86
2022/12/01 21:02:30;;;;;;;7.28;4.70;;;;;;;;;;10317248;28;20633;-86
2022/12/01 21:07:36;;;;;;;9.45;5.40;;;;;;;;;;10361730;28;20077;-88
2022/12/01 21:18:08;;;;;;;8.63;5.85;;;;;;;;;;10334720;28;20057;-87
2022/12/01 21:23:15;;;;;;;10.85;5.95;;;;;;;;;;10340426;28;20093;-89
2022/12/01 21:28:20;;;;;;;10.85;6.05;;;;;;;;;;10320498;28;20137;-84
2022/12/01 21:33:31;;;;;;;10.88;6.00;;;;;;;;;;10306288;28;20073;-84
2022/12/01 21:38:34;;;;;;;9.75;5.45;;;;;;;;;;10316912;28;20061;-83
2022/12/01 21:43:38;;;;;;;11.63;6.57;;;;;;;;;;10310185;28;20405;-83
2022/12/01 21:48:44;;;;;;;10.13;5.78;;;;;;;;;;10291276;28;20446;-84
2022/12/01 21:53:50;;;;;;;10.88;5.95;;;;;;;;;;10303874;28;20073;-84
2022/12/01 21:58:57;;;;;;;10.85;6.35;;;;;;;;;;10311073;28;20058;-83
2022/12/01 22:04:10;;;;;;;13.13;7.13;;;;;;;;;;10310247;28;20046;-83
2022/12/01 22:09:19;;;;;;;10.90;6.35;;;;;;;;;;10294121;28;20289;-84
2022/12/01 22:14:28;;;;;;;10.98;5.95;;;;;;;;;;10304809;28;20054;-83
2022/12/01 22:19:34;;;;;;;9.65;6.28;;;;;;;;;;10305523;28;20421;-83
2022/12/01 22:24:40;;;;;;;10.25;6.47;;;;;;;;;;10307568;28;20472;-83
2022/12/01 22:29:45;;;;;;;11.40;6.32;;;;;;;;;;10309772;28;20057;-83
2022/12/01 22:34:56;;;;;;;11.88;6.30;;;;;;;;;;10318740;28;20052;-83
2022/12/01 22:39:59;;;;;;;11.23;6.22;;;;;;;;;;10293938;28;20077;-83
2022/12/01 22:45:19;;;;;;;11.57;6.45;;;;;;;;;;10311335;28;20150;-83
2022/12/01 22:50:27;;;;;;;12.70;6.80;;;;;;;;;;10305979;28;20529;-83
2022/12/01 22:55:31;;;;;;;13.82;7.20;;;;;;;;;;10301284;28;20040;-83
2022/12/01 23:00:34;;;;;;;12.30;6.88;;;;;;;;;;10288091;28;20046;-83
2022/12/01 23:05:41;;;;;;;13.25;7.20;;;;;;;;;;10308143;28;20046;-84
2022/12/01 23:10:45;;;;;;;13.85;7.53;;;;;;;;;;10284513;28;20054;-82
2022/12/01 23:15:51;;;;;;;16.58;8.30;;;;;;;;;;10284604;28;20063;-83
2022/12/01 23:20:58;;;;;;;12.65;7.22;;;;;;;;;;10315453;28;20687;-83
2022/12/01 23:26:01;;;;;;;;;;;;;;;;;;10307953;28;20037;-83
2022/12/01 23:31:07;;;;;;;12.95;7.28;;;;;;;;;;10306124;28;20011;-82
2022/12/01 23:36:18;;;;;;;13.40;6.95;;;;;;;;;;10283048;28;20038;-83
2022/12/01 23:41:27;;;;;;;13.18;7.95;;;;;;;;;;10324952;28;20054;-85
2022/12/01 23:46:34;;;;;;;11.85;6.45;;;;;;;;;;10311127;28;20046;-88
2022/12/01 23:51:44;;;;;;;12.27;6.93;;;;;;;;;;10318922;28;20381;-86
2022/12/01 23:56:53;;;;;;;16.73;7.80;;;;;;;;;;10321639;28;20051;-86
